PWSweather.com
Personal Weather Stations
Station Observations
AUSTRALIA
Summerhill, LauncestonAU 7250

SummerhillLauncestonAU 7250

Lat: -41.461352, Lon: 147.128382

Elevation: 787.4

Station Type: Vantage Vue Pro 2

http://stevesweather.datawebnet.com.au/index.php

Latest ConditionsUpdated 10:00:03 PM GMT+10:10 Sunday, Jan 20, 2019
Currently Today's Max Today's Min Today's Average
Temperature 73.6°F23.1°C 88.0°F31.1°C 53.6°F12.0°C 71.5°F21.9°C
Dew Point 55.9°F13.3°C 61.9°F16.6°C 49.7°F9.8°C 54.9°F12.7°C
Winds Calm Calm 7.0 mph -11.3 kmh - - 3.1 mph 5.0 kmh
Wind Gusts -- 18.0 mph29.0 kmh - -
Humidity 54% 87% 33% 59%
Pressure 30.03 in1016.9 mb 30.04 in1017.3 mb 29.96 in1014.6 mb -
Hour Temp Dew Point Humidity Winds Wind Gusts Pressure Precip Precip Rate Daily Precip Total
10:00 PM 73.6°F23.1°C 55.9°F13.3°C 54% Calm Calm -- 30.03 in1016.9 mb 0.00 in0.0 mm 0.00 in0.0 mm 0.00 in0.0 mm
09:45 PM 74.1°F23.4°C 56.4°F13.6°C 54% Calm Calm -- 30.04 in1017.3 mb 0.00 in0.0 mm 0.00 in0.0 mm 0.00 in0.0 mm
09:30 PM 74.8°F23.8°C 56.0°F13.3°C 52% Calm Calm -- 30.03 in1016.9 mb 0.00 in0.0 mm 0.00 in0.0 mm 0.00 in0.0 mm
09:15 PM 75.9°F24.4°C 55.9°F13.3°C 50% Calm Calm -- 30.03 in1016.9 mb 0.00 in0.0 mm 0.00 in0.0 mm 0.00 in0.0 mm
09:00 PM 76.8°F24.9°C 55.6°F13.1°C 48% Calm Calm 1.0 mph1.6 kmh 30.02 in1016.6 mb 0.00 in0.0 mm 0.00 in0.0 mm 0.00 in0.0 mm
08:45 PM 77.2°F25.1°C 55.4°F13.0°C 47% Calm Calm -- 30.01 in1016.3 mb 0.00 in0.0 mm 0.00 in0.0 mm 0.00 in0.0 mm
08:30 PM 77.5°F25.3°C 55.1°F12.8°C 46% Calm Calm -- 30.01 in1016.3 mb 0.00 in0.0 mm 0.00 in0.0 mm 0.00 in0.0 mm
08:15 PM 78.6°F25.9°C 55.5°F13.1°C 45% Calm Calm -- 30.00 in1015.9 mb 0.00 in0.0 mm 0.00 in0.0 mm 0.00 in0.0 mm
08:00 PM 79.9°F26.6°C 55.4°F13.0°C 43% Calm Calm -- 29.99 in1015.6 mb 0.00 in0.0 mm 0.00 in0.0 mm 0.00 in0.0 mm
07:45 PM 81.0°F27.2°C 55.7°F13.2°C 42% Calm Calm 1.0 mph1.6 kmh 29.99 in1015.6 mb 0.00 in0.0 mm 0.00 in0.0 mm 0.00 in0.0 mm
07:30 PM 81.9°F27.7°C 55.2°F12.9°C 40% 1.0 mph SSW1.6 kmh SSW 4.0 mph6.4 kmh 29.98 in1015.2 mb 0.00 in0.0 mm 0.00 in0.0 mm 0.00 in0.0 mm
07:15 PM 82.9°F28.3°C 55.4°F13.0°C 39% 1.0 mph SSW1.6 kmh SSW 5.0 mph8.0 kmh 29.98 in1015.2 mb 0.00 in0.0 mm 0.00 in0.0 mm 0.00 in0.0 mm
07:00 PM 84.4°F29.1°C 56.0°F13.3°C 38% 2.0 mph SSW3.2 kmh SSW 7.0 mph11.3 kmh 29.98 in1015.2 mb 0.00 in0.0 mm 0.00 in0.0 mm 0.00 in0.0 mm
06:45 PM 85.5°F29.7°C 56.2°F13.4°C 37% 2.0 mph SSW3.2 kmh SSW 10.0 mph16.1 kmh 29.97 in1014.9 mb 0.00 in0.0 mm 0.00 in0.0 mm 0.00 in0.0 mm
06:30 PM 86.5°F30.3°C 55.6°F13.1°C 35% 2.0 mph SSW3.2 kmh SSW 6.0 mph9.7 kmh 29.97 in1014.9 mb 0.00 in0.0 mm 0.00 in0.0 mm 0.00 in0.0 mm
06:15 PM 87.1°F30.6°C 55.3°F12.9°C 34% 3.0 mph SSW4.8 kmh SSW 9.0 mph14.5 kmh 29.97 in1014.9 mb 0.00 in0.0 mm 0.00 in0.0 mm 0.00 in0.0 mm
06:00 PM 87.4°F30.8°C 55.6°F13.1°C 34% 2.0 mph SW3.2 kmh SW 8.0 mph12.9 kmh 29.96 in1014.6 mb 0.00 in0.0 mm 0.00 in0.0 mm 0.00 in0.0 mm
05:45 PM 87.4°F30.8°C 55.6°F13.1°C 34% 3.0 mph SSW4.8 kmh SSW 10.0 mph16.1 kmh 29.96 in1014.6 mb 0.00 in0.0 mm 0.00 in0.0 mm 0.00 in0.0 mm
05:30 PM 87.6°F30.9°C 55.0°F12.8°C 33% 4.0 mph SSW6.4 kmh SSW 8.0 mph12.9 kmh 29.96 in1014.6 mb 0.00 in0.0 mm 0.00 in0.0 mm 0.00 in0.0 mm
05:15 PM 87.6°F30.9°C 55.0°F12.8°C 33% 6.0 mph S9.7 kmh S 11.0 mph17.7 kmh 29.96 in1014.6 mb 0.00 in0.0 mm 0.00 in0.0 mm 0.00 in0.0 mm
05:00 PM 87.6°F30.9°C 55.0°F12.8°C 33% 7.0 mph S11.3 kmh S 18.0 mph29.0 kmh 29.96 in1014.6 mb 0.00 in0.0 mm 0.00 in0.0 mm 0.00 in0.0 mm
04:45 PM 88.0°F31.1°C 55.3°F12.9°C 33% 7.0 mph SSW11.3 kmh SSW 15.0 mph24.1 kmh 29.96 in1014.6 mb 0.00 in0.0 mm 0.00 in0.0 mm 0.00 in0.0 mm
04:30 PM 87.6°F30.9°C 56.6°F13.7°C 35% 2.0 mph SW3.2 kmh SW 9.0 mph14.5 kmh 29.96 in1014.6 mb 0.00 in0.0 mm 0.00 in0.0 mm 0.00 in0.0 mm
04:15 PM 86.4°F30.2°C 61.9°F16.6°C 44% 1.0 mph NE1.6 kmh NE 7.0 mph11.3 kmh 29.97 in1014.9 mb 0.00 in0.0 mm 0.00 in0.0 mm 0.00 in0.0 mm
04:00 PM 85.6°F29.8°C 61.2°F16.2°C 44% 3.0 mph N4.8 kmh N 9.0 mph14.5 kmh 29.97 in1014.9 mb 0.00 in0.0 mm 0.00 in0.0 mm 0.00 in0.0 mm
03:45 PM 85.3°F29.6°C 60.9°F16.1°C 44% 6.0 mph N9.7 kmh N 10.0 mph16.1 kmh 29.96 in1014.6 mb 0.00 in0.0 mm 0.00 in0.0 mm 0.00 in0.0 mm
03:30 PM 85.5°F29.7°C 61.1°F16.2°C 44% 5.0 mph N8.0 kmh N 11.0 mph17.7 kmh 29.97 in1014.9 mb 0.00 in0.0 mm 0.00 in0.0 mm 0.00 in0.0 mm
03:15 PM 85.5°F29.7°C 61.7°F16.5°C 45% 5.0 mph NNW8.0 kmh NNW 11.0 mph17.7 kmh 29.97 in1014.9 mb 0.00 in0.0 mm 0.00 in0.0 mm 0.00 in0.0 mm
03:00 PM 85.3°F29.6°C 60.9°F16.1°C 44% 5.0 mph N8.0 kmh N 13.0 mph20.9 kmh 29.97 in1014.9 mb 0.00 in0.0 mm 0.00 in0.0 mm 0.00 in0.0 mm
02:45 PM 84.6°F29.2°C 60.9°F16.1°C 45% 6.0 mph N9.7 kmh N 14.0 mph22.5 kmh 29.97 in1014.9 mb 0.00 in0.0 mm 0.00 in0.0 mm 0.00 in0.0 mm
02:30 PM 83.5°F28.6°C 60.5°F15.8°C 46% 7.0 mph N11.3 kmh N 16.0 mph25.7 kmh 29.97 in1014.9 mb 0.00 in0.0 mm 0.00 in0.0 mm 0.00 in0.0 mm
02:15 PM 83.8°F28.8°C 59.6°F15.3°C 44% 7.0 mph NNW11.3 kmh NNW 13.0 mph20.9 kmh 29.97 in1014.9 mb 0.00 in0.0 mm 0.00 in0.0 mm 0.00 in0.0 mm
02:00 PM 84.4°F29.1°C 59.4°F15.2°C 43% 6.0 mph N9.7 kmh N 14.0 mph22.5 kmh 29.98 in1015.2 mb 0.00 in0.0 mm 0.00 in0.0 mm 0.00 in0.0 mm
01:45 PM 84.2°F29.0°C 59.3°F15.2°C 43% 6.0 mph N9.7 kmh N 13.0 mph20.9 kmh 29.98 in1015.2 mb 0.00 in0.0 mm 0.00 in0.0 mm 0.00 in0.0 mm
01:30 PM 83.8°F28.8°C 59.6°F15.3°C 44% 5.0 mph N8.0 kmh N 14.0 mph22.5 kmh 29.98 in1015.2 mb 0.00 in0.0 mm 0.00 in0.0 mm 0.00 in0.0 mm
01:15 PM 82.2°F27.9°C 58.8°F14.9°C 45% 7.0 mph NNW11.3 kmh NNW 16.0 mph25.7 kmh 29.99 in1015.6 mb 0.00 in0.0 mm 0.00 in0.0 mm 0.00 in0.0 mm
01:00 PM 81.9°F27.7°C 58.4°F14.7°C 45% 7.0 mph NNW11.3 kmh NNW 14.0 mph22.5 kmh 29.99 in1015.6 mb 0.00 in0.0 mm 0.00 in0.0 mm 0.00 in0.0 mm
12:45 PM 81.9°F27.7°C 57.2°F14.0°C 43% 6.0 mph NNW9.7 kmh NNW 13.0 mph20.9 kmh 30.00 in1015.9 mb 0.00 in0.0 mm 0.00 in0.0 mm 0.00 in0.0 mm
12:30 PM 81.0°F27.2°C 57.6°F14.2°C 45% 5.0 mph N8.0 kmh N 11.0 mph17.7 kmh 30.00 in1015.9 mb 0.00 in0.0 mm 0.00 in0.0 mm 0.00 in0.0 mm
12:15 PM 80.2°F26.8°C 58.2°F14.6°C 47% 6.0 mph NNW9.7 kmh NNW 12.0 mph19.3 kmh 30.01 in1016.3 mb 0.00 in0.0 mm 0.00 in0.0 mm 0.00 in0.0 mm
12:00 PM 79.2°F26.2°C 58.9°F14.9°C 50% 6.0 mph N9.7 kmh N 14.0 mph22.5 kmh 30.01 in1016.3 mb 0.00 in0.0 mm 0.00 in0.0 mm 0.00 in0.0 mm
11:45 AM 78.1°F25.6°C 59.0°F15.0°C 52% 5.0 mph NNW8.0 kmh NNW 12.0 mph19.3 kmh 30.01 in1016.3 mb 0.00 in0.0 mm 0.00 in0.0 mm 0.00 in0.0 mm
11:30 AM 77.5°F25.3°C 58.5°F14.7°C 52% 7.0 mph NNW11.3 kmh NNW 13.0 mph20.9 kmh 30.02 in1016.6 mb 0.00 in0.0 mm 0.00 in0.0 mm 0.00 in0.0 mm
11:15 AM 76.5°F24.7°C 57.5°F14.2°C 52% 6.0 mph N9.7 kmh N 12.0 mph19.3 kmh 30.02 in1016.6 mb 0.00 in0.0 mm 0.00 in0.0 mm 0.00 in0.0 mm
11:00 AM 75.6°F24.2°C 57.7°F14.3°C 54% 5.0 mph NNW8.0 kmh NNW 13.0 mph20.9 kmh 30.02 in1016.6 mb 0.00 in0.0 mm 0.00 in0.0 mm 0.00 in0.0 mm
10:45 AM 74.5°F23.6°C 56.7°F13.7°C 54% 6.0 mph NNW9.7 kmh NNW 11.0 mph17.7 kmh 30.03 in1016.9 mb 0.00 in0.0 mm 0.00 in0.0 mm 0.00 in0.0 mm
10:30 AM 73.6°F23.1°C 56.4°F13.6°C 55% 5.0 mph N8.0 kmh N 11.0 mph17.7 kmh 30.03 in1016.9 mb 0.00 in0.0 mm 0.00 in0.0 mm 0.00 in0.0 mm
10:15 AM 72.3°F22.4°C 56.2°F13.4°C 57% 6.0 mph NNW9.7 kmh NNW 11.0 mph17.7 kmh 30.03 in1016.9 mb 0.00 in0.0 mm 0.00 in0.0 mm 0.00 in0.0 mm
10:00 AM 71.4°F21.9°C 55.9°F13.3°C 58% 5.0 mph NNW8.0 kmh NNW 11.0 mph17.7 kmh 30.04 in1017.3 mb 0.00 in0.0 mm 0.00 in0.0 mm 0.00 in0.0 mm
09:45 AM 70.5°F21.4°C 55.5°F13.1°C 59% 5.0 mph NNW8.0 kmh NNW 11.0 mph17.7 kmh 30.03 in1016.9 mb 0.00 in0.0 mm 0.00 in0.0 mm 0.00 in0.0 mm
09:30 AM 69.4°F20.8°C 54.9°F12.7°C 60% 4.0 mph NNW6.4 kmh NNW 11.0 mph17.7 kmh 30.03 in1016.9 mb 0.00 in0.0 mm 0.00 in0.0 mm 0.00 in0.0 mm
09:15 AM 68.4°F20.2°C 55.3°F12.9°C 63% 6.0 mph NW9.7 kmh NW 13.0 mph20.9 kmh 30.03 in1016.9 mb 0.00 in0.0 mm 0.00 in0.0 mm 0.00 in0.0 mm
09:00 AM 67.5°F19.7°C 54.9°F12.7°C 64% 5.0 mph NW8.0 kmh NW 10.0 mph16.1 kmh 30.03 in1016.9 mb 0.00 in0.0 mm 0.00 in0.0 mm 0.00 in0.0 mm
08:45 AM 66.6°F19.2°C 54.8°F12.7°C 66% 4.0 mph N6.4 kmh N 9.0 mph14.5 kmh 30.04 in1017.3 mb 0.00 in0.0 mm 0.00 in0.0 mm 0.00 in0.0 mm
08:30 AM 65.7°F18.7°C 54.4°F12.4°C 67% 4.0 mph NNW6.4 kmh NNW 9.0 mph14.5 kmh 30.04 in1017.3 mb 0.00 in0.0 mm 0.00 in0.0 mm 0.00 in0.0 mm
08:15 AM 64.6°F18.1°C 54.2°F12.3°C 69% 4.0 mph N6.4 kmh N 9.0 mph14.5 kmh 30.04 in1017.3 mb 0.00 in0.0 mm 0.00 in0.0 mm 0.00 in0.0 mm
08:00 AM 63.7°F17.6°C 54.1°F12.3°C 71% 4.0 mph N6.4 kmh N 10.0 mph16.1 kmh 30.04 in1017.3 mb 0.00 in0.0 mm 0.00 in0.0 mm 0.00 in0.0 mm
07:45 AM 63.0°F17.2°C 53.4°F11.9°C 71% 3.0 mph NNW4.8 kmh NNW 9.0 mph14.5 kmh 30.03 in1016.9 mb 0.00 in0.0 mm 0.00 in0.0 mm 0.00 in0.0 mm
07:30 AM 61.9°F16.6°C 53.1°F11.7°C 73% 4.0 mph NNW6.4 kmh NNW 11.0 mph17.7 kmh 30.03 in1016.9 mb 0.00 in0.0 mm 0.00 in0.0 mm 0.00 in0.0 mm
07:15 AM 61.0°F16.1°C 53.4°F11.9°C 76% 5.0 mph NNW8.0 kmh NNW 12.0 mph19.3 kmh 30.03 in1016.9 mb 0.00 in0.0 mm 0.00 in0.0 mm 0.00 in0.0 mm
07:00 AM 60.1°F15.6°C 53.2°F11.8°C 78% 3.0 mph NW4.8 kmh NW 6.0 mph9.7 kmh 30.03 in1016.9 mb 0.00 in0.0 mm 0.00 in0.0 mm 0.00 in0.0 mm
06:45 AM 58.8°F14.9°C 52.7°F11.5°C 80% 3.0 mph NNW4.8 kmh NNW 9.0 mph14.5 kmh 30.02 in1016.6 mb 0.00 in0.0 mm 0.00 in0.0 mm 0.00 in0.0 mm
06:30 AM 57.9°F14.4°C 52.1°F11.2°C 81% 1.0 mph N1.6 kmh N 8.0 mph12.9 kmh 30.02 in1016.6 mb 0.00 in0.0 mm 0.00 in0.0 mm 0.00 in0.0 mm
06:15 AM 57.0°F13.9°C 51.9°F11.1°C 83% 1.0 mph NNW1.6 kmh NNW 5.0 mph8.0 kmh 30.01 in1016.3 mb 0.00 in0.0 mm 0.00 in0.0 mm 0.00 in0.0 mm
06:00 AM 55.8°F13.2°C 51.6°F10.9°C 86% 1.0 mph NNW1.6 kmh NNW 5.0 mph8.0 kmh 30.01 in1016.3 mb 0.00 in0.0 mm 0.00 in0.0 mm 0.00 in0.0 mm
05:45 AM 53.8°F12.1°C 50.0°F10.0°C 87% Calm Calm 3.0 mph4.8 kmh 30.00 in1015.9 mb 0.00 in0.0 mm 0.00 in0.0 mm 0.00 in0.0 mm
05:30 AM 53.6°F12.0°C 49.8°F9.9°C 87% Calm Calm -- 30.01 in1016.3 mb 0.00 in0.0 mm 0.00 in0.0 mm 0.00 in0.0 mm
05:15 AM 53.8°F12.1°C 49.7°F9.8°C 86% Calm Calm -- 30.00 in1015.9 mb 0.00 in0.0 mm 0.00 in0.0 mm 0.00 in0.0 mm
05:00 AM 54.0°F12.2°C 49.9°F9.9°C 86% Calm Calm -- 30.00 in1015.9 mb 0.00 in0.0 mm 0.00 in0.0 mm 0.00 in0.0 mm
04:45 AM 54.3°F12.4°C 49.9°F9.9°C 85% Calm Calm -- 30.00 in1015.9 mb 0.00 in0.0 mm 0.00 in0.0 mm 0.00 in0.0 mm
04:30 AM 54.9°F12.7°C 50.1°F10.1°C 84% Calm Calm -- 30.00 in1015.9 mb 0.00 in0.0 mm 0.00 in0.0 mm 0.00 in0.0 mm
04:15 AM 55.2°F12.9°C 50.5°F10.3°C 84% Calm Calm -- 29.99 in1015.6 mb 0.00 in0.0 mm 0.00 in0.0 mm 0.00 in0.0 mm
04:00 AM 55.9°F13.3°C 50.9°F10.5°C 83% Calm Calm -- 29.99 in1015.6 mb 0.00 in0.0 mm 0.00 in0.0 mm 0.00 in0.0 mm
03:45 AM 56.3°F13.5°C 51.2°F10.7°C 83% Calm Calm 4.0 mph6.4 kmh 30.00 in1015.9 mb 0.00 in0.0 mm 0.00 in0.0 mm 0.00 in0.0 mm
03:30 AM 56.5°F13.6°C 51.4°F10.8°C 83% 1.0 mph N1.6 kmh N 5.0 mph8.0 kmh 30.00 in1015.9 mb 0.00 in0.0 mm 0.00 in0.0 mm 0.00 in0.0 mm
03:15 AM 56.5°F13.6°C 51.1°F10.6°C 82% Calm Calm 4.0 mph6.4 kmh 30.01 in1016.3 mb 0.00 in0.0 mm 0.00 in0.0 mm 0.00 in0.0 mm
03:00 AM 56.7°F13.7°C 51.2°F10.7°C 82% 1.0 mph NNE1.6 kmh NNE 5.0 mph8.0 kmh 30.01 in1016.3 mb 0.00 in0.0 mm 0.00 in0.0 mm 0.00 in0.0 mm
02:45 AM 56.8°F13.8°C 51.1°F10.6°C 81% 2.0 mph N3.2 kmh N 6.0 mph9.7 kmh 30.01 in1016.3 mb 0.00 in0.0 mm 0.00 in0.0 mm 0.00 in0.0 mm
02:30 AM 56.8°F13.8°C 51.1°F10.6°C 81% 2.0 mph N3.2 kmh N 8.0 mph12.9 kmh 30.01 in1016.3 mb 0.00 in0.0 mm 0.00 in0.0 mm 0.00 in0.0 mm
02:15 AM 57.2°F14.0°C 51.1°F10.6°C 80% 2.0 mph N3.2 kmh N 7.0 mph11.3 kmh 30.02 in1016.6 mb 0.00 in0.0 mm 0.00 in0.0 mm 0.00 in0.0 mm
02:00 AM 57.2°F14.0°C 51.1°F10.6°C 80% 2.0 mph N3.2 kmh N 8.0 mph12.9 kmh 30.02 in1016.6 mb 0.00 in0.0 mm 0.00 in0.0 mm 0.00 in0.0 mm
01:45 AM 57.4°F14.1°C 51.3°F10.7°C 80% 3.0 mph N4.8 kmh N 8.0 mph12.9 kmh 30.03 in1016.9 mb 0.00 in0.0 mm 0.00 in0.0 mm 0.00 in0.0 mm
01:30 AM 57.6°F14.2°C 51.1°F10.6°C 79% 3.0 mph N4.8 kmh N 7.0 mph11.3 kmh 30.03 in1016.9 mb 0.00 in0.0 mm 0.00 in0.0 mm 0.00 in0.0 mm
01:15 AM 57.7°F14.3°C 50.9°F10.5°C 78% 4.0 mph N6.4 kmh N 10.0 mph16.1 kmh 30.04 in1017.3 mb 0.00 in0.0 mm 0.00 in0.0 mm 0.00 in0.0 mm
01:00 AM 57.9°F14.4°C 50.8°F10.4°C 77% 3.0 mph N4.8 kmh N 10.0 mph16.1 kmh 30.04 in1017.3 mb 0.00 in0.0 mm 0.00 in0.0 mm 0.00 in0.0 mm
12:45 AM 58.3°F14.6°C 51.1°F10.6°C 77% 3.0 mph N4.8 kmh N 8.0 mph12.9 kmh 30.03 in1016.9 mb 0.00 in0.0 mm 0.00 in0.0 mm 0.00 in0.0 mm
12:30 AM 58.5°F14.7°C 50.6°F10.3°C 75% 4.0 mph N6.4 kmh N 10.0 mph16.1 kmh 30.03 in1016.9 mb 0.00 in0.0 mm 0.00 in0.0 mm 0.00 in0.0 mm
12:15 AM 58.6°F14.8°C 50.7°F10.4°C 75% 3.0 mph N4.8 kmh N 10.0 mph16.1 kmh 30.04 in1017.3 mb 0.00 in0.0 mm 0.00 in0.0 mm 0.00 in0.0 mm
12:00 AM 58.8°F14.9°C 50.5°F10.3°C 74% 4.0 mph NNW6.4 kmh NNW 12.0 mph19.3 kmh 30.04 in1017.3 mb 0.00 in0.0 mm 0.00 in0.0 mm 0.00 in0.0 mm